Accueil
Images satellite Prévisions 10 joursClimatMétéo marine Cyclones Foudre AéroportsFAQ Actualités A propos
Météo : Europe Afrique Amérique du Nord Amérique du Sud Asie Australie-Océanie Autres
Langues Contact

Bergerac, France

Aéroport de Bergerac-Dordogne-Périgord

latitude: 44-49N, longitude: 000-31E, altitude: 51 m


METAR: LFBE 041400Z AUTO 03004KT 350V070 CAVOK 22/08 Q1017
TAF: LFBE 041100Z 0412/0512 29005KT CAVOK

Heure: 16:27 (14:27 UTC)

Observation

Le bulletin a été fait il y a 27 minutes, à 14:00 UTC
Vent 4 kt de nord/nord-est, variant entre nord et est/nord-est
Température 22°C
Humidité 41%
Pression 1017 hPa
Visibilité 10 km ou plus
pas de nuages en-dessous de 1500 mètres et pas de cumulonimbus.

Changer d'unités

Prévision

Le bulletin a été fait il y a 3 heures et 27 minutes, à 11:00 UTC
Prévision valable du 04 à 12 UTC au 05 à 12 UTC
Vent 5 kt de ouest/nord-ouest
Visibilité 10 km ou plus
pas de nuages en-dessous de 1500 mètres et pas de cumulonimbus.
Les informations qui figurent sur ce site font l'objet d'une clause de non-responsabilité
Météo : Europe Afrique Amérique du Nord Amérique du Sud Asie Australie-Océanie Autres
Images satellite Prévisions 10 joursClimatMétéo marine Cyclones Foudre AéroportsFAQ Langues Contact Actualités A propos